Time;durP1;ratioP1;P1;durP2;ratioP2;P2;SDS_P1;SDS_P2;PMS_P1;PMS_P2;Temp;Humidity;BMP_temperature;BMP_pressure;BME280_temperature;BME280_humidity;BME280_pressure;Samples;Min_cycle;Max_cycle;Signal;HPM_P1;HPM_P2
2023/09/01 00:00:47;;;;;;;21.65;19.35;;;;;;;-148.88;100.00;-17125.47;4999289;28;20401;-78
2023/09/01 00:03:13;;;;;;;20.98;18.77;;;;;;;-148.88;100.00;-17125.47;4999932;28;20062;-78
2023/09/01 00:05:38;;;;;;;22.08;18.92;;;;;;;-148.88;100.00;-17125.47;4999202;28;20096;-77
2023/09/01 00:08:04;;;;;;;23.90;19.13;;;;;;;-148.88;100.00;-17125.47;4999250;28;20026;-78
2023/09/01 00:10:30;;;;;;;24.70;21.48;;;;;;;-148.88;100.00;-17125.47;5000079;28;20105;-78
2023/09/01 00:12:57;;;;;;;27.70;23.65;;;;;;;-148.88;100.00;-17125.47;4999788;28;20029;-78
2023/09/01 00:15:22;;;;;;;26.55;23.38;;;;;;;-148.88;100.00;-17125.47;4998589;28;20023;-77
2023/09/01 00:17:47;;;;;;;26.55;23.55;;;;;;;-148.88;100.00;-17125.47;5000579;28;20029;-78
2023/09/01 00:20:13;;;;;;;26.63;23.83;;;;;;;-148.88;100.00;-17125.47;4999652;28;20034;-78
2023/09/01 00:22:38;;;;;;;25.95;23.13;;;;;;;-148.88;100.00;-17125.47;4998386;28;20086;-77
2023/09/01 00:25:04;;;;;;;27.98;23.52;;;;;;;-148.88;100.00;-17125.47;4999641;28;20030;-78
2023/09/01 00:27:30;;;;;;;25.92;22.90;;;;;;;-148.88;100.00;-17125.47;4999683;28;20026;-76
2023/09/01 00:29:56;;;;;;;28.27;24.77;;;;;;;-148.88;100.00;-17125.47;5000130;28;20050;-77
2023/09/01 00:32:21;;;;;;;30.05;25.92;;;;;;;-148.88;100.00;-17125.47;5000636;28;20393;-77
2023/09/01 00:34:56;;;;;;;29.08;25.70;;;;;;;-148.88;100.00;-17125.47;4999806;28;20420;-77
2023/09/01 00:37:21;;;;;;;28.73;24.52;;;;;;;-148.88;100.00;-17125.47;5000177;28;20030;-77
2023/09/01 00:39:46;;;;;;;30.17;25.48;;;;;;;-148.88;100.00;-17125.47;4999035;28;20022;-78
2023/09/01 00:42:12;;;;;;;29.80;26.15;;;;;;;-148.88;100.00;-17125.47;5000614;28;20026;-78
2023/09/01 00:44:37;;;;;;;30.05;25.08;;;;;;;-148.88;100.00;-17125.47;5000114;28;20048;-78
2023/09/01 00:47:03;;;;;;;32.38;26.83;;;;;;;-148.88;100.00;-17125.47;5000077;28;20471;-77
2023/09/01 00:49:28;;;;;;;28.23;24.77;;;;;;;-148.88;100.00;-17125.47;5000854;28;20026;-78
2023/09/01 00:51:53;;;;;;;30.13;26.55;;;;;;;-148.88;100.00;-17125.47;5000928;28;20028;-78
2023/09/01 00:54:19;;;;;;;33.60;26.65;;;;;;;-148.88;100.00;-17125.47;4999210;28;20058;-78
2023/09/01 00:56:48;;;;;;;29.60;26.27;;;;;;;-148.88;100.00;-17125.47;5000035;28;20135;-78
2023/09/01 00:59:14;;;;;;;31.25;25.08;;;;;;;-148.88;100.00;-17125.47;4998730;28;20396;-78
2023/09/01 01:01:41;;;;;;;27.20;23.75;;;;;;;-148.88;100.00;-17125.47;4998154;28;20018;-78
2023/09/01 01:04:07;;;;;;;28.40;25.27;;;;;;;-148.88;100.00;-17125.47;4999070;28;20038;-77
2023/09/01 01:06:58;;;;;;;30.02;25.80;;;;;;;-148.88;100.00;-17125.47;4998887;28;20053;-77
2023/09/01 01:09:35;;;;;;;31.42;26.33;;;;;;;-148.88;100.00;-17125.47;4999287;28;20442;-78
2023/09/01 01:12:07;;;;;;;29.60;24.75;;;;;;;-148.88;100.00;-17125.47;4998634;28;20034;-78
2023/09/01 01:14:52;;;;;;;27.00;24.05;;;;;;;-148.88;100.00;-17125.47;4998937;28;20023;-78
2023/09/01 01:17:19;;;;;;;28.17;24.05;;;;;;;-148.88;100.00;-17125.47;4995128;28;20058;-77
2023/09/01 01:19:50;;;;;;;31.20;25.85;;;;;;;-148.88;100.00;-17125.47;4995862;28;20448;-77
2023/09/01 01:22:41;;;;;;;32.30;27.80;;;;;;;-148.88;100.00;-17125.47;4993737;28;20030;-77
2023/09/01 01:25:11;;;;;;;31.45;26.23;;;;;;;-148.88;100.00;-17125.47;4995842;28;20022;-78
2023/09/01 01:27:37;;;;;;;30.48;24.90;;;;;;;-148.88;100.00;-17125.47;4994169;28;20489;-77
2023/09/01 01:30:05;;;;;;;29.15;25.00;;;;;;;-148.88;100.00;-17125.47;4996207;28;20023;-77
2023/09/01 01:32:31;;;;;;;33.75;25.23;;;;;;;-148.88;100.00;-17125.47;4994965;28;20054;-77
2023/09/01 01:35:24;;;;;;;28.88;25.67;;;;;;;-148.88;100.00;-17125.47;4995415;28;20037;-77
2023/09/01 01:37:57;;;;;;;33.42;25.98;;;;;;;-148.88;100.00;-17125.47;4993764;28;20026;-77
2023/09/01 01:40:24;;;;;;;28.90;24.50;;;;;;;-148.88;100.00;-17125.47;4994753;28;20037;-76
2023/09/01 01:42:53;;;;;;;30.63;26.80;;;;;;;-148.88;100.00;-17125.47;4993562;28;20456;-77
2023/09/01 01:45:22;;;;;;;31.75;25.73;;;;;;;-148.88;100.00;-17125.47;4994978;28;20371;-77
2023/09/01 01:47:50;;;;;;;28.38;25.35;;;;;;;-148.88;100.00;-17125.47;4999023;28;20022;-77
2023/09/01 01:50:15;;;;;;;32.63;26.85;;;;;;;-148.88;100.00;-17125.47;4999159;28;20105;-78
2023/09/01 01:52:41;;;;;;;30.55;25.65;;;;;;;-148.88;100.00;-17125.47;4998770;28;20050;-78
2023/09/01 01:55:08;;;;;;;31.38;26.05;;;;;;;-148.88;100.00;-17125.47;4997181;28;20022;-78
2023/09/01 01:57:34;;;;;;;31.50;26.63;;;;;;;-148.88;100.00;-17125.47;4997987;28;20026;-78
2023/09/01 01:59:59;;;;;;;30.80;25.95;;;;;;;-148.88;100.00;-17125.47;4998297;28;20105;-78
2023/09/01 02:02:25;;;;;;;27.38;23.90;;;;;;;-148.88;100.00;-17125.47;4998399;28;20026;-78
2023/09/01 02:04:50;;;;;;;27.25;23.35;;;;;;;-148.88;100.00;-17125.47;4996629;28;20029;-77
2023/09/01 02:07:16;;;;;;;26.83;23.60;;;;;;;-148.88;100.00;-17125.47;4995225;28;20053;-77
2023/09/01 02:09:42;;;;;;;26.77;23.75;;;;;;;-148.88;100.00;-17125.47;4998528;28;20061;-77
2023/09/01 02:12:07;;;;;;;26.88;23.15;;;;;;;-148.88;100.00;-17125.47;4998573;28;20030;-78
2023/09/01 02:14:36;;;;;;;28.13;25.08;;;;;;;-148.88;100.00;-17125.47;4998714;28;20033;-76
2023/09/01 02:17:03;;;;;;;28.83;24.60;;;;;;;-148.88;100.00;-17125.47;4998846;28;20117;-76
2023/09/01 02:19:29;;;;;;;32.83;26.85;;;;;;;-148.88;100.00;-17125.47;4997887;28;20029;-77
2023/09/01 02:21:54;;;;;;;35.58;26.80;;;;;;;-148.88;100.00;-17125.47;4999098;28;20057;-78
2023/09/01 02:24:20;;;;;;;34.03;27.90;;;;;;;-148.88;100.00;-17125.47;4998471;28;20053;-77
2023/09/01 02:26:45;;;;;;;34.38;29.13;;;;;;;-148.88;100.00;-17125.47;4999067;28;20030;-78
2023/09/01 02:29:11;;;;;;;34.22;27.35;;;;;;;-148.88;100.00;-17125.47;4997698;28;20097;-78
2023/09/01 02:31:38;;;;;;;31.05;26.20;;;;;;;-148.88;100.00;-17125.47;4998791;28;20049;-78
2023/09/01 02:34:05;;;;;;;32.35;26.40;;;;;;;-148.88;100.00;-17125.47;4998010;28;20058;-76
2023/09/01 02:36:35;;;;;;;33.67;26.35;;;;;;;-148.88;100.00;-17125.47;4996266;28;20117;-78
2023/09/01 02:39:04;;;;;;;32.70;26.88;;;;;;;-148.88;100.00;-17125.47;4996354;28;20033;-78
2023/09/01 02:41:30;;;;;;;31.58;26.55;;;;;;;-148.88;100.00;-17125.47;4997283;28;20029;-77
2023/09/01 02:43:57;;;;;;;34.08;25.75;;;;;;;-148.88;100.00;-17125.47;4998729;28;20520;-77
2023/09/01 02:46:23;;;;;;;30.80;26.25;;;;;;;-148.88;100.00;-17125.47;4998443;28;20056;-77
2023/09/01 02:48:49;;;;;;;32.55;28.25;;;;;;;-148.88;100.00;-17125.47;4998330;28;20068;-77
2023/09/01 02:51:15;;;;;;;32.80;27.58;;;;;;;-148.88;100.00;-17125.47;4998752;28;20492;-78
2023/09/01 02:53:40;;;;;;;30.55;25.02;;;;;;;-148.88;100.00;-17125.47;4997717;28;20031;-77
2023/09/01 02:56:06;;;;;;;30.30;25.05;;;;;;;-148.88;100.00;-17125.47;4997648;28;20026;-76
2023/09/01 02:58:32;;;;;;;33.50;26.42;;;;;;;-148.88;100.00;-17125.47;4995802;28;20022;-77
2023/09/01 03:00:58;;;;;;;28.73;25.65;;;;;;;-148.88;100.00;-17125.47;4997207;28;20113;-78
2023/09/01 03:03:23;;;;;;;32.45;26.33;;;;;;;-148.88;100.00;-17125.47;4997433;28;20393;-78
2023/09/01 03:05:51;;;;;;;29.75;25.50;;;;;;;-148.88;100.00;-17125.47;4998739;28;20034;-78
2023/09/01 03:08:23;;;;;;;29.52;25.02;;;;;;;-148.88;100.00;-17125.47;4997720;28;20425;-78
2023/09/01 03:10:49;;;;;;;31.27;25.45;;;;;;;-148.88;100.00;-17125.47;4995984;28;20033;-78
2023/09/01 03:13:15;;;;;;;29.23;23.92;;;;;;;-148.88;100.00;-17125.47;4996313;28;20113;-78
2023/09/01 03:15:41;;;;;;;29.92;24.55;;;;;;;-148.88;100.00;-17125.47;4996962;28;20054;-79
2023/09/01 03:18:08;;;;;;;29.65;24.80;;;;;;;-148.88;100.00;-17125.47;4995217;28;20109;-78
2023/09/01 03:20:34;;;;;;;34.38;25.00;;;;;;;-148.88;100.00;-17125.47;4996344;28;20379;-78
2023/09/01 03:23:00;;;;;;;29.90;25.08;;;;;;;-148.88;100.00;-17125.47;4997289;28;20500;-78
2023/09/01 03:25:25;;;;;;;33.05;25.83;;;;;;;-148.88;100.00;-17125.47;4997503;28;20033;-78
2023/09/01 03:27:50;;;;;;;30.23;25.73;;;;;;;-148.88;100.00;-17125.47;4996425;28;20026;-77
2023/09/01 03:30:16;;;;;;;30.17;25.63;;;;;;;-148.88;100.00;-17125.47;4997231;28;20038;-77
2023/09/01 03:32:41;;;;;;;32.00;26.42;;;;;;;-148.88;100.00;-17125.47;4997785;28;20110;-78
2023/09/01 03:35:07;;;;;;;32.15;25.00;;;;;;;-148.88;100.00;-17125.47;4998451;28;20030;-79
2023/09/01 03:37:33;;;;;;;28.45;24.20;;;;;;;-148.88;100.00;-17125.47;4996513;28;20030;-78
2023/09/01 03:39:59;;;;;;;28.30;23.77;;;;;;;-148.88;100.00;-17125.47;4996946;28;20489;-80
2023/09/01 03:42:26;;;;;;;26.77;22.63;;;;;;;-148.88;100.00;-17125.47;5004889;28;20058;-80
2023/09/01 03:44:52;;;;;;;30.60;23.10;;;;;;;-148.88;100.00;-17125.47;5007116;28;20026;-78
2023/09/01 03:47:18;;;;;;;30.13;24.02;;;;;;;-148.88;100.00;-17125.47;5002273;28;20022;-79
2023/09/01 03:49:44;;;;;;;31.55;23.77;;;;;;;-148.88;100.00;-17125.47;5002251;28;20431;-79
2023/09/01 03:52:09;;;;;;;32.22;23.92;;;;;;;-148.88;100.00;-17125.47;5001889;28;20101;-79
2023/09/01 03:54:35;;;;;;;30.23;23.52;;;;;;;-148.88;100.00;-17125.47;5002098;28;20061;-79
2023/09/01 03:57:00;;;;;;;28.65;24.25;;;;;;;-148.88;100.00;-17125.47;5001217;28;20042;-79
2023/09/01 03:59:26;;;;;;;29.23;23.75;;;;;;;-148.88;100.00;-17125.47;5002433;28;20034;-80
2023/09/01 04:01:51;;;;;;;30.13;24.70;;;;;;;-148.88;100.00;-17125.47;5000867;28;20041;-79
2023/09/01 04:04:18;;;;;;;32.72;27.00;;;;;;;-148.88;100.00;-17125.47;4999532;28;20489;-79
2023/09/01 04:06:44;;;;;;;32.25;24.55;;;;;;;-148.88;100.00;-17125.47;4995579;28;20152;-79
2023/09/01 04:09:11;;;;;;;30.27;24.17;;;;;;;-148.88;100.00;-17125.47;4997719;28;20058;-78
2023/09/01 04:11:36;;;;;;;30.38;24.70;;;;;;;-148.88;100.00;-17125.47;4999034;28;20031;-79
2023/09/01 04:14:02;;;;;;;30.35;23.25;;;;;;;-148.88;100.00;-17125.47;4998639;28;20109;-79
2023/09/01 04:16:28;;;;;;;28.88;22.60;;;;;;;-148.88;100.00;-17125.47;4999357;28;20037;-79
2023/09/01 04:18:56;;;;;;;27.05;22.00;;;;;;;-148.88;100.00;-17125.47;5001358;28;20018;-79
2023/09/01 04:21:22;;;;;;;28.80;23.33;;;;;;;-148.88;100.00;-17125.47;5001230;28;20030;-79
2023/09/01 04:23:47;;;;;;;30.33;22.98;;;;;;;-148.88;100.00;-17125.47;4999250;28;20068;-80
2023/09/01 04:26:13;;;;;;;27.42;22.13;;;;;;;-148.88;100.00;-17125.47;4999231;28;20026;-79
2023/09/01 04:28:38;;;;;;;29.75;23.20;;;;;;;-148.88;100.00;-17125.47;4997534;28;20023;-79
2023/09/01 04:31:15;;;;;;;28.27;21.65;;;;;;;-148.88;100.00;-17125.47;5032430;23;20046;-77
2023/09/01 04:33:41;;;;;;;30.48;23.17;;;;;;;-148.88;100.00;-17125.47;4994519;28;20029;-77
2023/09/01 04:36:06;;;;;;;25.27;21.55;;;;;;;-148.88;100.00;-17125.47;4996138;28;20396;-77
2023/09/01 04:38:32;;;;;;;23.77;19.00;;;;;;;-148.88;100.00;-17125.47;4995965;28;20022;-76
2023/09/01 04:40:59;;;;;;;27.52;21.70;;;;;;;-148.88;100.00;-17125.47;4995323;28;20504;-76
2023/09/01 04:43:26;;;;;;;29.67;21.55;;;;;;;-148.88;100.00;-17125.47;4994816;28;20042;-76
2023/09/01 04:45:56;;;;;;;24.60;20.60;;;;;;;-148.88;100.00;-17125.47;4994917;28;20125;-78
2023/09/01 04:48:21;;;;;;;23.65;20.20;;;;;;;-148.88;100.00;-17125.47;4993942;28;20489;-77
2023/09/01 04:50:47;;;;;;;27.30;20.77;;;;;;;-148.88;100.00;-17125.47;4994964;28;20037;-77
2023/09/01 04:53:13;;;;;;;27.45;20.50;;;;;;;-148.88;100.00;-17125.47;4993652;28;20053;-77
2023/09/01 04:55:38;;;;;;;26.08;20.17;;;;;;;-148.88;100.00;-17125.47;4994869;28;20022;-77
2023/09/01 04:58:04;;;;;;;27.80;20.25;;;;;;;-148.88;100.00;-17125.47;4993331;28;20069;-77
2023/09/01 05:00:29;;;;;;;25.00;20.33;;;;;;;-148.88;100.00;-17125.47;4994838;28;20105;-77
2023/09/01 05:02:55;;;;;;;29.15;21.48;;;;;;;-148.88;100.00;-17125.47;4994849;28;20026;-77
2023/09/01 05:05:21;;;;;;;26.65;21.20;;;;;;;-148.88;100.00;-17125.47;4994673;28;20065;-77
2023/09/01 05:07:46;;;;;;;26.35;20.92;;;;;;;-148.88;100.00;-17125.47;4993268;28;20030;-77
2023/09/01 05:10:11;;;;;;;26.67;20.80;;;;;;;-148.88;100.00;-17125.47;4994748;28;20053;-77
2023/09/01 05:12:37;;;;;;;26.13;21.08;;;;;;;-148.88;100.00;-17125.47;4993266;28;20029;-77
2023/09/01 05:15:04;;;;;;;23.95;21.05;;;;;;;-148.88;100.00;-17125.47;4994768;28;20105;-77
2023/09/01 05:17:29;;;;;;;25.92;20.30;;;;;;;-148.88;100.00;-17125.47;4996520;28;20025;-77
2023/09/01 05:19:56;;;;;;;25.17;19.67;;;;;;;-148.88;100.00;-17125.47;4994215;28;20436;-77
2023/09/01 05:22:22;;;;;;;26.42;20.60;;;;;;;-148.88;100.00;-17125.47;4996116;28;20045;-78
2023/09/01 05:24:49;;;;;;;24.00;20.02;;;;;;;-148.88;100.00;-17125.47;4996577;28;20101;-77
2023/09/01 05:27:15;;;;;;;25.20;20.27;;;;;;;-148.88;100.00;-17125.47;4994633;28;20029;-78
2023/09/01 05:29:41;;;;;;;27.55;20.77;;;;;;;-148.88;100.00;-17125.47;4995894;28;20033;-78
2023/09/01 05:32:06;;;;;;;25.58;20.38;;;;;;;-148.88;100.00;-17125.47;4995452;28;20398;-78
2023/09/01 05:34:31;;;;;;;26.63;20.13;;;;;;;-148.88;100.00;-17125.47;4993730;28;20034;-78
2023/09/01 05:36:57;;;;;;;25.23;20.63;;;;;;;-148.88;100.00;-17125.47;4994902;28;20520;-78
2023/09/01 05:39:23;;;;;;;24.92;19.98;;;;;;;-148.88;100.00;-17125.47;4995121;28;20449;-78
2023/09/01 05:41:49;;;;;;;23.88;19.63;;;;;;;-148.88;100.00;-17125.47;4994702;28;20077;-77
2023/09/01 05:44:14;;;;;;;26.48;19.00;;;;;;;-148.88;100.00;-17125.47;4994852;28;20058;-78
2023/09/01 05:46:40;;;;;;;26.45;19.90;;;;;;;-148.88;100.00;-17125.47;4993305;28;20025;-78
2023/09/01 05:49:05;;;;;;;24.40;19.58;;;;;;;-148.88;100.00;-17125.47;4993140;28;20027;-78
2023/09/01 05:51:31;;;;;;;23.50;19.27;;;;;;;-148.88;100.00;-17125.47;4993479;28;20030;-78
2023/09/01 05:53:56;;;;;;;24.27;19.00;;;;;;;-148.88;100.00;-17125.47;4994688;28;20023;-78
2023/09/01 05:56:22;;;;;;;25.33;19.23;;;;;;;-148.88;100.00;-17125.47;4993654;28;20088;-78
2023/09/01 05:58:47;;;;;;;23.73;19.25;;;;;;;-148.88;100.00;-17125.47;4995924;28;20038;-80
2023/09/01 06:01:13;;;;;;;25.40;19.98;;;;;;;-148.88;100.00;-17125.47;4997156;28;20026;-78
2023/09/01 06:03:39;;;;;;;26.48;18.70;;;;;;;-148.88;100.00;-17125.47;4996147;28;20030;-78
2023/09/01 06:06:06;;;;;;;22.33;18.38;;;;;;;-148.88;100.00;-17125.47;4997672;28;20026;-79
2023/09/01 06:08:32;;;;;;;22.80;18.27;;;;;;;-148.88;100.00;-17125.47;4997513;28;20026;-79
2023/09/01 06:11:05;;;;;;;23.05;18.00;;;;;;;-148.88;100.00;-17125.47;4998235;28;20030;-79
2023/09/01 06:13:31;;;;;;;21.75;17.65;;;;;;;-148.88;100.00;-17125.47;4997844;28;20026;-79
2023/09/01 06:15:56;;;;;;;21.85;17.42;;;;;;;-148.88;100.00;-17125.47;4998931;28;20037;-80
2023/09/01 06:18:22;;;;;;;22.35;18.48;;;;;;;-148.88;100.00;-17125.47;4997866;28;20025;-80
2023/09/01 06:20:47;;;;;;;26.00;20.65;;;;;;;-148.88;100.00;-17125.47;4999494;28;20037;-79
2023/09/01 06:23:13;;;;;;;24.65;18.33;;;;;;;-148.88;100.00;-17125.47;4997712;28;20461;-79
2023/09/01 06:25:39;;;;;;;23.08;17.55;;;;;;;-148.88;100.00;-17125.47;4999220;28;20040;-80
2023/09/01 06:28:05;;;;;;;22.95;17.33;;;;;;;-148.88;100.00;-17125.47;4999531;28;20041;-79
2023/09/01 06:30:30;;;;;;;25.13;17.13;;;;;;;-148.88;100.00;-17125.47;4997821;28;20493;-80
2023/09/01 06:32:56;;;;;;;24.60;17.65;;;;;;;-148.88;100.00;-17125.47;4999296;28;20505;-80
2023/09/01 06:35:21;;;;;;;20.65;16.95;;;;;;;-148.88;100.00;-17125.47;4994433;28;20100;-79
2023/09/01 06:37:47;;;;;;;25.50;17.92;;;;;;;-148.88;100.00;-17125.47;4994115;28;20030;-78
2023/09/01 06:40:12;;;;;;;20.33;17.63;;;;;;;-148.88;100.00;-17125.47;4994345;28;20149;-79
2023/09/01 06:42:38;;;;;;;19.90;16.02;;;;;;;-148.88;100.00;-17125.47;4996138;28;20037;-80
2023/09/01 06:45:04;;;;;;;18.85;15.60;;;;;;;-148.88;100.00;-17125.47;4995681;28;20041;-79
2023/09/01 06:47:30;;;;;;;21.30;15.48;;;;;;;-148.88;100.00;-17125.47;4994782;28;20065;-79
2023/09/01 06:49:55;;;;;;;19.77;13.40;;;;;;;-148.88;100.00;-17125.47;4998122;28;20026;-80
2023/09/01 06:52:21;;;;;;;18.58;13.02;;;;;;;-148.88;100.00;-17125.47;4996393;28;20117;-77
2023/09/01 06:54:46;;;;;;;24.00;12.55;;;;;;;-148.88;100.00;-17125.47;4997554;28;20120;-80
2023/09/01 06:57:12;;;;;;;18.08;12.88;;;;;;;-148.88;100.00;-17125.47;4996038;28;20041;-80
2023/09/01 06:59:37;;;;;;;15.52;11.75;;;;;;;-148.88;100.00;-17125.47;4997299;28;20073;-78
2023/09/01 07:02:03;;;;;;;17.60;11.82;;;;;;;-148.88;100.00;-17125.47;4995013;28;20105;-78
2023/09/01 07:04:28;;;;;;;14.82;11.38;;;;;;;-148.88;100.00;-17125.47;4997103;28;20595;-78
2023/09/01 07:06:54;;;;;;;16.02;11.07;;;;;;;-148.88;100.00;-17125.47;4996699;28;20034;-78
2023/09/01 07:09:19;;;;;;;15.85;11.02;;;;;;;-148.88;100.00;-17125.47;4996888;28;20066;-78
2023/09/01 07:11:45;;;;;;;16.15;11.00;;;;;;;-148.88;100.00;-17125.47;4998437;28;20097;-78
2023/09/01 07:14:10;;;;;;;14.73;10.70;;;;;;;-148.88;100.00;-17125.47;4998454;28;20061;-78
2023/09/01 07:16:35;;;;;;;15.73;11.13;;;;;;;-148.88;100.00;-17125.47;4996802;28;20026;-78
2023/09/01 07:19:01;;;;;;;15.73;12.27;;;;;;;-148.88;100.00;-17125.47;4997364;28;20018;-78
2023/09/01 07:21:26;;;;;;;17.55;11.25;;;;;;;-148.88;100.00;-17125.47;4996925;28;20145;-78
2023/09/01 07:23:52;;;;;;;16.80;12.27;;;;;;;-148.88;100.00;-17125.47;4995738;28;20022;-78
2023/09/01 07:26:17;;;;;;;13.25;10.80;;;;;;;-148.88;100.00;-17125.47;4997351;28;20023;-79
2023/09/01 07:28:43;;;;;;;14.25;10.85;;;;;;;-148.88;100.00;-17125.47;4996692;28;20022;-78
2023/09/01 07:31:12;;;;;;;14.65;10.65;;;;;;;-148.88;100.00;-17125.47;4995961;28;20346;-78
2023/09/01 07:33:41;;;;;;;12.40;9.48;;;;;;;-148.88;100.00;-17125.47;4994751;28;20058;-78
2023/09/01 07:36:11;;;;;;;13.98;9.93;;;;;;;-148.88;100.00;-17125.47;4996015;28;20405;-79
2023/09/01 07:38:40;;;;;;;14.60;10.52;;;;;;;-148.88;100.00;-17125.47;4995365;28;20055;-78
2023/09/01 07:41:07;;;;;;;12.60;10.02;;;;;;;-148.88;100.00;-17125.47;4994125;28;20072;-79
2023/09/01 07:43:33;;;;;;;14.95;9.85;;;;;;;-148.88;100.00;-17125.47;4994503;28;20033;-78
2023/09/01 07:46:00;;;;;;;13.43;8.68;;;;;;;-148.88;100.00;-17125.47;4995255;28;20026;-78
2023/09/01 07:48:25;;;;;;;15.80;8.98;;;;;;;-148.88;100.00;-17125.47;4994568;28;20042;-78
2023/09/01 07:50:50;;;;;;;15.57;8.80;;;;;;;-148.88;100.00;-17125.47;4995750;28;20029;-78
2023/09/01 07:53:16;;;;;;;17.13;8.35;;;;;;;-148.88;100.00;-17125.47;4993583;28;20030;-78
2023/09/01 07:55:42;;;;;;;12.55;7.50;;;;;;;-148.88;100.00;-17125.47;4994099;28;20065;-78
2023/09/01 07:58:08;;;;;;;10.27;7.25;;;;;;;-148.88;100.00;-17125.47;4995321;28;20018;-78
2023/09/01 08:00:35;;;;;;;9.85;7.78;;;;;;;-148.88;100.00;-17125.47;4993197;28;20029;-78
2023/09/01 08:03:00;;;;;;;12.70;7.50;;;;;;;-148.88;100.00;-17125.47;4994430;28;20026;-78
2023/09/01 08:05:26;;;;;;;12.25;7.03;;;;;;;-148.88;100.00;-17125.47;4996560;28;20034;-78
2023/09/01 08:07:53;;;;;;;13.52;7.20;;;;;;;-148.88;100.00;-17125.47;4997853;28;20029;-78
2023/09/01 08:10:18;;;;;;;13.18;7.05;;;;;;;-148.88;100.00;-17125.47;4997934;28;20397;-78
2023/09/01 08:12:44;;;;;;;12.57;6.70;;;;;;;-148.88;100.00;-17125.47;4998230;28;20034;-78
2023/09/01 08:15:10;;;;;;;12.75;7.07;;;;;;;-148.88;100.00;-17125.47;4998227;28;20124;-78
2023/09/01 08:17:35;;;;;;;10.45;6.78;;;;;;;-148.88;100.00;-17125.47;4997463;28;20022;-78
2023/09/01 08:20:03;;;;;;;13.10;7.18;;;;;;;-148.88;100.00;-17125.47;4998112;28;20030;-78
2023/09/01 08:22:30;;;;;;;12.13;6.53;;;;;;;-148.88;100.00;-17125.47;4997025;28;20054;-78
2023/09/01 08:24:56;;;;;;;12.15;6.05;;;;;;;-148.88;100.00;-17125.47;4999677;28;20037;-78
2023/09/01 08:27:21;;;;;;;11.20;5.85;;;;;;;-148.88;100.00;-17125.47;4998982;28;20022;-77
2023/09/01 08:29:46;;;;;;;12.07;6.45;;;;;;;-148.88;100.00;-17125.47;4997823;28;20022;-78
2023/09/01 08:32:12;;;;;;;10.80;6.53;;;;;;;-148.88;100.00;-17125.47;4997898;28;20026;-78
2023/09/01 08:34:37;;;;;;;9.93;5.47;;;;;;;-148.88;100.00;-17125.47;4997053;28;20038;-78
2023/09/01 08:37:03;;;;;;;10.43;5.60;;;;;;;-148.88;100.00;-17125.47;4996907;28;20544;-77
2023/09/01 08:39:29;;;;;;;12.25;6.25;;;;;;;-148.88;100.00;-17125.47;4996216;28;20026;-78
2023/09/01 08:41:54;;;;;;;11.02;6.53;;;;;;;-148.88;100.00;-17125.47;4997289;28;20026;-78
2023/09/01 08:44:27;;;;;;;11.48;6.65;;;;;;;-148.88;100.00;-17125.47;4996919;28;20470;-78
2023/09/01 08:46:55;;;;;;;15.43;6.63;;;;;;;-148.88;100.00;-17125.47;4997311;28;20030;-78
2023/09/01 08:49:22;;;;;;;9.93;6.30;;;;;;;-148.88;100.00;-17125.47;4997379;28;20066;-78
2023/09/01 08:51:48;;;;;;;12.60;6.30;;;;;;;-148.88;100.00;-17125.47;4996408;28;20029;-78
2023/09/01 08:54:17;;;;;;;11.45;6.30;;;;;;;-148.88;100.00;-17125.47;4997559;28;20393;-78
2023/09/01 08:56:43;;;;;;;9.73;5.55;;;;;;;-148.88;100.00;-17125.47;4997110;28;20030;-78
2023/09/01 08:59:08;;;;;;;12.32;5.43;;;;;;;-148.88;100.00;-17125.47;4998228;28;20077;-78
2023/09/01 09:01:35;;;;;;;11.32;5.70;;;;;;;-148.88;100.00;-17125.47;4998781;28;20026;-77
2023/09/01 09:04:01;;;;;;;14.82;5.88;;;;;;;-148.88;100.00;-17125.47;4997578;28;20030;-78
2023/09/01 09:06:34;;;;;;;10.88;4.78;;;;;;;-148.88;99.67;-17125.47;4997035;28;20378;-78
2023/09/01 09:09:14;;;;;;;10.27;4.95;;;;;;;-148.88;100.00;-17125.47;4997083;28;20077;-78
2023/09/01 09:11:57;;;;;;;12.73;5.80;;;;;;;-148.88;100.00;-17125.47;4997281;28;20556;-78
2023/09/01 09:14:24;;;;;;;14.40;5.43;;;;;;;-148.88;100.00;-17125.47;4997326;28;20125;-78
2023/09/01 09:16:55;;;;;;;10.85;5.00;;;;;;;-148.88;100.00;-17125.47;4997848;28;20271;-78
2023/09/01 09:19:22;;;;;;;14.18;5.13;;;;;;;-148.88;100.00;-17125.47;4996693;28;20453;-78
2023/09/01 09:21:48;;;;;;;9.95;5.60;;;;;;;-148.88;100.00;-17125.47;4996428;28;20026;-78
2023/09/01 09:24:13;;;;;;;11.45;5.38;;;;;;;-148.88;100.00;-17125.47;4997907;28;20112;-78
2023/09/01 09:26:38;;;;;;;12.00;5.85;;;;;;;-148.88;100.00;-17125.47;4997991;28;20473;-78
2023/09/01 09:29:11;;;;;;;13.13;5.75;;;;;;;-148.88;100.00;-17125.47;4995778;28;20022;-78
2023/09/01 09:31:41;;;;;;;12.82;6.25;;;;;;;-148.88;100.00;-17125.47;4997300;28;20085;-77
2023/09/01 09:34:17;;;;;;;10.35;5.15;;;;;;;-148.88;100.00;-17125.47;4997568;28;20026;-78
2023/09/01 09:36:47;;;;;;;10.48;5.78;;;;;;;-148.88;100.00;-17125.47;4996750;28;20121;-77
2023/09/01 09:39:33;;;;;;;14.57;6.47;;;;;;;-148.88;99.16;-17125.47;4999559;28;20024;-77
2023/09/01 09:41:58;;;;;;;16.77;6.60;;;;;;;-148.88;100.00;-17125.47;4998682;28;20499;-77
2023/09/01 09:44:23;;;;;;;11.85;6.18;;;;;;;-148.88;98.24;-17125.47;4996996;28;20023;-78
2023/09/01 09:46:49;;;;;;;13.13;6.10;;;;;;;-148.88;97.11;-17125.47;4997136;28;20033;-78
2023/09/01 09:49:15;;;;;;;11.50;6.03;;;;;;;-148.88;98.78;-17125.47;4996744;28;20027;-78
2023/09/01 09:51:42;;;;;;;10.32;6.07;;;;;;;-148.88;98.00;-17125.47;4996603;28;20026;-78
2023/09/01 09:54:11;;;;;;;11.50;6.28;;;;;;;-148.88;96.58;-17125.47;4996069;28;20030;-77
2023/09/01 09:56:38;;;;;;;12.20;5.70;;;;;;;-148.88;95.33;-17125.47;4996397;28;20059;-77
2023/09/01 09:59:05;;;;;;;13.15;6.47;;;;;;;-148.88;97.20;-17125.47;4995811;28;20021;-77
2023/09/01 10:01:43;;;;;;;15.02;5.85;;;;;;;-148.88;99.22;-17125.47;4994991;28;20137;-78
2023/09/01 10:04:09;;;;;;;11.93;5.75;;;;;;;-148.88;97.48;-17125.47;4994627;28;20085;-77
2023/09/01 10:06:35;;;;;;;10.82;6.05;;;;;;;-148.88;98.07;-17125.47;4994631;28;20058;-77
2023/09/01 10:09:08;;;;;;;10.40;5.75;;;;;;;-148.88;96.96;-17125.47;4994665;28;20022;-77
2023/09/01 10:11:33;;;;;;;10.98;5.60;;;;;;;-148.88;95.64;-17125.47;4996055;28;20044;-78
2023/09/01 10:14:00;;;;;;;13.82;5.95;;;;;;;-148.88;96.64;-17125.47;4996450;28;20105;-78
2023/09/01 10:16:27;;;;;;;9.05;5.03;;;;;;;-148.88;96.46;-17125.47;4996514;28;20018;-77
2023/09/01 10:18:53;;;;;;;11.90;5.70;;;;;;;-148.88;97.51;-17125.47;4994958;28;20064;-77
2023/09/01 10:21:20;;;;;;;10.85;4.80;;;;;;;-148.88;97.15;-17125.47;4994679;28;20033;-77
2023/09/01 10:23:46;;;;;;;10.20;4.80;;;;;;;-148.88;96.38;-17125.47;4995424;28;20120;-77
2023/09/01 10:26:24;;;;;;;8.63;4.93;;;;;;;-148.88;97.20;-17125.47;4995687;28;20050;-77
2023/09/01 10:28:54;;;;;;;14.93;5.65;;;;;;;-148.88;98.04;-17125.47;4995732;28;20026;-77
2023/09/01 10:31:23;;;;;;;11.45;5.32;;;;;;;-148.88;98.34;-17125.47;5037967;23;20114;-84
2023/09/01 10:34:12;;;;;;;11.05;4.53;;;;;;;-148.88;97.45;-17125.47;4995998;28;20034;-84
2023/09/01 10:36:40;;;;;;;9.95;5.10;;;;;;;-148.88;98.90;-17125.47;4997293;28;20127;-83
2023/09/01 10:39:26;;;;;;;15.25;4.70;;;;;;;-148.88;98.83;-17125.47;4995710;28;20018;-86
2023/09/01 10:42:07;;;;;;;11.57;4.65;;;;;;;-148.88;98.43;-17125.47;4994954;28;20026;-84
2023/09/01 10:44:53;;;;;;;7.22;3.90;;;;;;;-148.88;100.00;-17125.47;4993151;28;20557;-86
2023/09/01 10:47:31;;;;;;;8.07;3.53;;;;;;;-148.88;98.52;-17125.47;4985030;28;20034;-85
2023/09/01 10:50:01;;;;;;;9.75;3.95;;;;;;;-148.88;98.02;-17125.47;4994966;28;20194;-87